Time;durP1;ratioP1;P1;durP2;ratioP2;P2;SDS_P1;SDS_P2;PMS_P1;PMS_P2;Temp;Humidity;BMP_temperature;BMP_pressure;BME280_temperature;BME280_humidity;BME280_pressure;Samples;Min_cycle;Max_cycle;Signal;HPM_P1;HPM_P2
2023/06/20 00:00:06;;;;;;;4.15;3.80;;;25.60;59.00;;;;;;899222;155;27396;-74
2023/06/20 00:02:30;;;;;;;4.05;3.75;;;25.60;59.10;;;;;;898373;155;27408;-74
2023/06/20 00:04:56;;;;;;;4.00;3.62;;;25.60;59.20;;;;;;898139;155;27483;-74
2023/06/20 00:07:23;;;;;;;7.12;4.25;;;25.60;59.20;;;;;;898431;155;27334;-74
2023/06/20 00:09:49;;;;;;;4.70;4.30;;;25.60;59.30;;;;;;897057;155;27502;-74
2023/06/20 00:12:16;;;;;;;3.52;3.33;;;25.60;59.40;;;;;;896983;155;27549;-74
2023/06/20 00:14:43;;;;;;;4.12;3.83;;;25.50;59.40;;;;;;897900;155;27418;-74
2023/06/20 00:17:09;;;;;;;4.67;4.22;;;25.50;59.50;;;;;;897200;155;27388;-74
2023/06/20 00:19:36;;;;;;;4.75;4.35;;;25.50;59.70;;;;;;898268;158;27365;-74
2023/06/20 00:22:02;;;;;;;4.78;4.28;;;25.50;59.90;;;;;;897742;155;27519;-75
2023/06/20 00:24:31;;;;;;;5.50;5.00;;;25.50;60.00;;;;;;896548;155;27394;-75
2023/06/20 00:26:56;;;;;;;4.85;4.40;;;25.50;60.30;;;;;;897492;155;27483;-74
2023/06/20 00:29:22;;;;;;;4.87;4.05;;;25.50;60.80;;;;;;894706;155;27338;-74
2023/06/20 00:31:49;;;;;;;5.30;4.80;;;25.50;61.00;;;;;;898185;155;27443;-74
2023/06/20 00:34:15;;;;;;;5.20;4.80;;;25.50;61.10;;;;;;899422;155;27450;-74
2023/06/20 00:36:42;;;;;;;5.08;4.67;;;25.50;61.40;;;;;;899187;157;27425;-74
2023/06/20 00:39:09;;;;;;;5.37;4.97;;;25.40;61.50;;;;;;898456;155;27358;-74
2023/06/20 00:41:35;;;;;;;4.80;4.50;;;25.40;61.80;;;;;;898863;155;27326;-74
2023/06/20 00:44:03;;;;;;;5.58;4.87;;;25.30;62.20;;;;;;898982;155;27329;-74
2023/06/20 00:46:28;;;;;;;6.37;5.35;;;25.30;62.50;;;;;;897670;155;27495;-74
2023/06/20 00:48:56;;;;;;;5.10;4.70;;;25.20;62.80;;;;;;896490;155;27461;-74
2023/06/20 00:51:22;;;;;;;6.47;5.20;;;25.20;63.30;;;;;;896893;155;27402;-74
2023/06/20 00:53:48;;;;;;;5.50;5.00;;;25.10;63.20;;;;;;898719;155;27405;-75
2023/06/20 00:56:15;;;;;;;5.12;4.70;;;25.10;63.60;;;;;;897471;157;27493;-74
2023/06/20 00:58:41;;;;;;;5.28;4.85;;;25.10;64.00;;;;;;898520;155;27388;-74
2023/06/20 01:01:08;;;;;;;4.87;4.47;;;25.00;64.20;;;;;;898590;155;27324;-75
2023/06/20 01:03:37;;;;;;;5.33;4.92;;;25.00;64.40;;;;;;899246;158;27396;-74
2023/06/20 01:06:32;;;;;;;5.25;4.75;;;24.90;64.80;;;;;;899523;155;27411;-74
2023/06/20 01:09:19;;;;;;;5.75;5.35;;;24.90;65.10;;;;;;899374;155;27486;-74
2023/06/20 01:11:58;;;;;;;5.35;4.95;;;24.80;65.60;;;;;;895672;155;27477;-74
2023/06/20 01:14:36;;;;;;;4.87;4.47;;;24.80;65.00;;;;;;896408;155;27385;-74
2023/06/20 01:17:18;;;;;;;5.42;4.92;;;24.70;65.20;;;;;;896466;155;27368;-74
2023/06/20 01:20:05;;;;;;;7.55;5.40;;;24.70;65.50;;;;;;896787;155;27460;-74
2023/06/20 01:23:03;;;;;;;5.33;4.92;;;24.70;65.90;;;;;;899358;155;27398;-74
2023/06/20 01:25:35;;;;;;;5.97;5.47;;;24.60;66.00;;;;;;897822;155;27407;-74
2023/06/20 01:28:07;;;;;;;5.85;5.35;;;24.60;66.20;;;;;;899006;155;27385;-74
2023/06/20 01:30:43;;;;;;;5.65;5.15;;;24.50;66.60;;;;;;898596;155;27466;-74
2023/06/20 01:33:10;;;;;;;6.00;5.60;;;24.50;67.10;;;;;;897015;155;28058;-74
2023/06/20 01:35:36;;;;;;;6.55;5.80;;;24.50;67.50;;;;;;898455;155;27520;-74
2023/06/20 01:38:03;;;;;;;6.05;5.53;;;24.40;67.90;;;;;;897188;155;27433;-74
2023/06/20 01:40:29;;;;;;;6.60;6.00;;;24.40;67.70;;;;;;896256;155;27323;-74
2023/06/20 01:42:56;;;;;;;6.70;6.05;;;24.30;68.10;;;;;;898443;155;27366;-75
2023/06/20 01:45:23;;;;;;;6.78;6.25;;;24.30;67.90;;;;;;898204;155;27508;-75
2023/06/20 01:47:49;;;;;;;6.30;5.87;;;24.20;69.10;;;;;;897253;155;27416;-75
2023/06/20 01:50:16;;;;;;;7.62;6.92;;;24.10;70.50;;;;;;902545;156;27424;-76
2023/06/20 01:52:42;;;;;;;6.78;6.28;;;23.90;71.40;;;;;;907944;153;27449;-76
2023/06/20 01:55:10;;;;;;;6.87;6.37;;;23.80;72.10;;;;;;909131;153;27402;-75
2023/06/20 01:57:35;;;;;;;6.25;5.72;;;23.60;72.70;;;;;;907863;153;27401;-75
2023/06/20 02:00:06;;;;;;;6.72;5.55;;;23.50;73.60;;;;;;908260;153;27327;-76
2023/06/20 02:02:29;;;;;;;6.00;5.50;;;23.40;74.30;;;;;;908567;156;27363;-75
2023/06/20 02:04:56;;;;;;;6.37;5.70;;;23.20;75.20;;;;;;907489;155;27383;-76
2023/06/20 02:07:22;;;;;;;6.53;5.92;;;23.10;76.10;;;;;;910159;153;27490;-75
2023/06/20 02:09:48;;;;;;;5.95;5.45;;;23.00;77.40;;;;;;907896;153;27488;-75
2023/06/20 02:12:15;;;;;;;6.33;5.83;;;22.90;78.50;;;;;;907360;153;27483;-75
2023/06/20 02:14:42;;;;;;;6.30;5.72;;;22.80;79.60;;;;;;908704;153;27368;-77
2023/06/20 02:17:12;;;;;;;5.87;5.40;;;22.80;80.80;;;;;;907812;153;27418;-77
2023/06/20 02:19:35;;;;;;;7.50;5.87;;;22.70;81.80;;;;;;907640;153;27401;-77
2023/06/20 02:22:01;;;;;;;6.30;5.70;;;22.70;83.20;;;;;;909943;153;27460;-77
2023/06/20 02:24:28;;;;;;;7.97;6.33;;;22.70;84.50;;;;;;909974;153;27403;-75
2023/06/20 02:26:55;;;;;;;6.22;5.72;;;22.70;85.70;;;;;;908301;153;27421;-75
2023/06/20 02:29:21;;;;;;;5.72;5.22;;;22.60;86.30;;;;;;908802;156;27417;-74
2023/06/20 02:31:48;;;;;;;6.70;5.95;;;22.60;87.50;;;;;;908203;153;27368;-75
2023/06/20 02:34:14;;;;;;;5.80;5.30;;;22.60;88.90;;;;;;909919;153;27385;-74
2023/06/20 02:36:41;;;;;;;5.75;5.20;;;22.60;90.00;;;;;;907863;153;27368;-74
2023/06/20 02:39:07;;;;;;;5.40;5.00;;;22.60;90.60;;;;;;907431;153;27436;-75
2023/06/20 02:41:34;;;;;;;5.58;5.08;;;22.60;91.40;;;;;;908333;153;27407;-74
2023/06/20 02:44:01;;;;;;;5.78;5.37;;;22.60;91.90;;;;;;909891;153;27384;-74
2023/06/20 02:46:48;;;;;;;6.10;5.65;;;22.60;92.30;;;;;;909274;153;27394;-78
2023/06/20 02:49:23;;;;;;;5.80;5.35;;;22.60;93.20;;;;;;908503;153;27363;-77
2023/06/20 02:52:15;;;;;;;5.85;5.33;;;22.60;93.70;;;;;;908377;153;27447;-77
2023/06/20 02:54:56;;;;;;;6.28;5.78;;;22.60;94.20;;;;;;909590;153;27420;-77
2023/06/20 02:57:23;;;;;;;6.00;5.12;;;22.50;94.60;;;;;;908603;153;27388;-77
2023/06/20 02:59:49;;;;;;;6.67;5.97;;;22.50;95.10;;;;;;908432;156;27731;-77
2023/06/20 03:02:16;;;;;;;6.22;5.62;;;22.50;95.70;;;;;;905819;153;27433;-77
2023/06/20 03:04:42;;;;;;;6.15;5.60;;;22.50;96.30;;;;;;910183;153;27474;-77
2023/06/20 03:07:09;;;;;;;5.95;5.45;;;22.50;96.70;;;;;;909294;153;27336;-77
2023/06/20 03:09:36;;;;;;;6.22;5.62;;;22.50;97.10;;;;;;906735;153;27483;-77
2023/06/20 03:12:02;;;;;;;6.30;5.80;;;22.50;97.40;;;;;;910136;153;27373;-77
2023/06/20 03:14:29;;;;;;;6.03;5.53;;;22.50;97.80;;;;;;907364;153;27388;-77
2023/06/20 03:16:55;;;;;;;5.97;5.37;;;22.50;98.00;;;;;;908708;153;27680;-77
2023/06/20 03:19:22;;;;;;;6.15;5.55;;;22.50;98.30;;;;;;908855;153;27386;-77
2023/06/20 03:21:49;;;;;;;5.80;5.30;;;22.50;98.50;;;;;;907740;153;27345;-78
2023/06/20 03:24:15;;;;;;;5.90;5.35;;;22.50;98.70;;;;;;908076;153;27498;-77
2023/06/20 03:26:42;;;;;;;5.92;5.40;;;22.50;98.80;;;;;;909874;153;27473;-77
2023/06/20 03:29:08;;;;;;;5.67;5.17;;;22.50;99.00;;;;;;907730;153;27460;-77
2023/06/20 03:31:35;;;;;;;6.00;5.50;;;22.50;99.10;;;;;;907194;153;27406;-77
2023/06/20 03:34:02;;;;;;;5.92;5.42;;;22.50;99.30;;;;;;908350;153;27798;-77
2023/06/20 03:36:28;;;;;;;5.85;5.35;;;22.50;99.40;;;;;;909408;153;27415;-77
2023/06/20 03:38:55;;;;;;;5.87;5.37;;;22.50;99.60;;;;;;907921;153;27426;-77
2023/06/20 03:41:21;;;;;;;6.35;5.75;;;22.50;99.70;;;;;;910307;153;27478;-77
2023/06/20 03:43:48;;;;;;;5.90;5.30;;;22.50;99.80;;;;;;909881;153;27373;-77
2023/06/20 03:46:14;;;;;;;6.10;5.50;;;22.50;99.90;;;;;;908557;153;27505;-77
2023/06/20 03:48:41;;;;;;;5.87;5.35;;;22.50;99.90;;;;;;908166;153;27384;-77
2023/06/20 03:51:08;;;;;;;6.03;5.53;;;22.50;99.90;;;;;;907237;153;27497;-77
2023/06/20 03:53:34;;;;;;;6.92;6.22;;;22.50;99.90;;;;;;909188;153;27417;-77
2023/06/20 03:56:02;;;;;;;6.15;5.65;;;22.50;99.90;;;;;;910388;153;27394;-77
2023/06/20 03:58:27;;;;;;;6.45;5.95;;;22.50;99.90;;;;;;909236;153;27472;-77
2023/06/20 04:00:54;;;;;;;6.33;5.75;;;22.50;99.90;;;;;;910055;156;27422;-77
2023/06/20 04:03:21;;;;;;;6.47;5.87;;;22.50;99.90;;;;;;907577;153;27493;-77
2023/06/20 04:05:47;;;;;;;6.33;5.72;;;22.40;99.90;;;;;;910872;153;27350;-77
2023/06/20 04:08:14;;;;;;;6.50;5.90;;;22.40;99.90;;;;;;907779;156;27322;-77
2023/06/20 04:10:40;;;;;;;7.00;6.30;;;22.40;99.90;;;;;;907044;153;27436;-79
2023/06/20 04:13:07;;;;;;;6.50;5.85;;;22.40;99.90;;;;;;909149;156;27408;-78
2023/06/20 04:15:34;;;;;;;7.83;6.47;;;22.40;99.90;;;;;;910568;153;27313;-78
2023/06/20 04:18:00;;;;;;;7.15;6.55;;;22.40;99.90;;;;;;907438;153;27376;-78
2023/06/20 04:20:27;;;;;;;6.78;6.17;;;22.40;99.90;;;;;;909572;156;27373;-78
2023/06/20 04:22:53;;;;;;;7.35;6.50;;;22.40;99.90;;;;;;908024;153;27422;-78
2023/06/20 04:25:20;;;;;;;7.33;6.62;;;22.40;99.90;;;;;;910420;153;27512;-78
2023/06/20 04:27:53;;;;;;;6.70;6.20;;;22.50;99.90;;;;;;908073;156;27366;-78
2023/06/20 04:30:13;;;;;;;8.30;7.20;;;22.50;99.90;;;;;;907081;153;27460;-78
2023/06/20 04:32:41;;;;;;;6.75;6.15;;;22.50;99.90;;;;;;908974;153;27530;-78
2023/06/20 04:35:10;;;;;;;6.85;6.25;;;22.60;99.90;;;;;;907895;153;27547;-78
2023/06/20 04:37:33;;;;;;;7.50;6.90;;;22.60;99.90;;;;;;907680;154;27453;-78
2023/06/20 04:39:59;;;;;;;7.03;6.47;;;22.70;99.90;;;;;;908958;153;27322;-78
2023/06/20 04:42:26;;;;;;;6.92;6.33;;;22.80;99.90;;;;;;909865;153;27373;-78
2023/06/20 04:44:53;;;;;;;6.50;6.00;;;22.90;99.90;;;;;;908517;153;27488;-78
2023/06/20 04:47:19;;;;;;;6.75;6.03;;;23.00;99.90;;;;;;909995;153;27353;-78
2023/06/20 04:49:46;;;;;;;7.05;6.45;;;23.10;99.90;;;;;;908472;156;27317;-79
2023/06/20 04:52:13;;;;;;;6.62;6.03;;;23.20;99.90;;;;;;906259;155;27440;-78
2023/06/20 04:54:39;;;;;;;6.35;5.75;;;23.30;99.90;;;;;;897846;155;27424;-78
2023/06/20 04:57:06;;;;;;;6.28;5.78;;;23.50;99.90;;;;;;895955;155;27509;-79
2023/06/20 04:59:32;;;;;;;5.85;5.30;;;23.70;99.90;;;;;;897711;155;27481;-78
2023/06/20 05:01:59;;;;;;;5.47;5.05;;;24.00;99.90;;;;;;898630;155;27477;-78
2023/06/20 05:04:25;;;;;;;6.00;5.50;;;24.30;99.90;;;;;;898757;154;27490;-78
2023/06/20 05:06:52;;;;;;;6.00;5.50;;;24.70;99.90;;;;;;898312;155;27420;-79
2023/06/20 05:09:18;;;;;;;5.47;5.03;;;25.10;99.90;;;;;;897514;157;27373;-79
2023/06/20 05:11:45;;;;;;;6.20;5.60;;;25.40;99.90;;;;;;899063;155;27356;-79
2023/06/20 05:14:12;;;;;;;5.95;5.42;;;25.80;99.90;;;;;;897797;155;27370;-79
2023/06/20 05:16:38;;;;;;;5.95;5.45;;;26.20;99.90;;;;;;898807;155;27425;-79
2023/06/20 05:19:05;;;;;;;6.22;5.62;;;26.60;99.90;;;;;;898399;155;27771;-79
2023/06/20 05:21:31;;;;;;;6.87;6.00;;;27.00;99.80;;;;;;898074;155;27380;-80
2023/06/20 05:23:58;;;;;;;6.80;6.20;;;27.30;98.70;;;;;;897602;155;27318;-79
2023/06/20 05:26:25;;;;;;;6.00;5.60;;;27.60;98.80;;;;;;896836;155;27492;-79
2023/06/20 05:28:51;;;;;;;6.85;6.35;;;28.00;98.80;;;;;;898513;155;27425;-79
2023/06/20 05:31:18;;;;;;;7.47;6.03;;;28.50;98.80;;;;;;899937;155;27397;-79
2023/06/20 05:33:44;;;;;;;8.08;5.97;;;28.90;97.40;;;;;;899630;155;27356;-79
2023/06/20 05:36:11;;;;;;;6.33;5.72;;;29.40;96.60;;;;;;896897;155;27472;-79
2023/06/20 05:38:38;;;;;;;6.00;5.40;;;30.00;95.90;;;;;;898627;157;27411;-79
2023/06/20 05:41:04;;;;;;;5.65;5.25;;;30.60;94.20;;;;;;896424;155;27376;-79
2023/06/20 05:43:33;;;;;;;5.53;5.10;;;31.10;92.20;;;;;;898285;155;27427;-79
2023/06/20 05:45:58;;;;;;;6.03;5.42;;;31.70;89.90;;;;;;897803;155;27465;-79
2023/06/20 05:48:25;;;;;;;5.22;4.83;;;32.20;86.40;;;;;;899100;155;27362;-79
2023/06/20 05:50:51;;;;;;;5.60;5.10;;;32.70;82.90;;;;;;898727;155;26320;-79
2023/06/20 05:53:17;;;;;;;5.35;4.80;;;33.10;79.60;;;;;;902704;153;27433;-79
2023/06/20 05:55:44;;;;;;;5.15;4.75;;;33.60;78.10;;;;;;909075;155;26369;-79
2023/06/20 05:58:10;;;;;;;5.40;5.00;;;34.00;75.40;;;;;;907549;153;27432;-79
2023/06/20 06:00:37;;;;;;;4.53;4.20;;;34.50;73.40;;;;;;908038;156;26306;-79
2023/06/20 06:03:03;;;;;;;5.42;4.92;;;34.90;71.30;;;;;;908285;153;26337;-79
2023/06/20 06:05:30;;;;;;;5.17;4.67;;;35.30;69.90;;;;;;908116;153;26302;-79
2023/06/20 06:07:57;;;;;;;5.12;4.70;;;35.60;68.30;;;;;;908349;153;26279;-79
2023/06/20 06:10:25;;;;;;;5.08;4.67;;;36.10;67.50;;;;;;909584;156;26300;-79
2023/06/20 06:12:50;;;;;;;6.42;4.90;;;36.50;65.10;;;;;;909612;153;26328;-79
2023/06/20 06:15:16;;;;;;;4.50;4.20;;;36.90;63.90;;;;;;910276;153;26437;-79
2023/06/20 06:17:43;;;;;;;4.92;4.53;;;37.20;62.50;;;;;;909759;153;26341;-79
2023/06/20 06:20:12;;;;;;;4.75;4.45;;;37.60;61.40;;;;;;906409;153;26295;-79
2023/06/20 06:22:36;;;;;;;4.78;4.47;;;38.00;60.40;;;;;;907842;153;27463;-78
2023/06/20 06:25:03;;;;;;;4.50;4.20;;;38.30;59.20;;;;;;908530;153;26327;-79
2023/06/20 06:27:29;;;;;;;4.47;4.17;;;38.60;58.60;;;;;;907373;153;26310;-78
2023/06/20 06:29:56;;;;;;;4.47;4.08;;;39.00;57.90;;;;;;908609;153;26272;-78
2023/06/20 06:32:23;;;;;;;4.28;3.98;;;39.30;57.20;;;;;;909983;154;26390;-78
2023/06/20 06:34:49;;;;;;;4.55;4.25;;;39.60;56.20;;;;;;910103;153;26277;-79
2023/06/20 06:37:16;;;;;;;4.78;4.37;;;40.00;55.50;;;;;;906808;153;26393;-79
2023/06/20 06:39:42;;;;;;;4.92;4.20;;;40.30;54.60;;;;;;909736;153;26311;-79
2023/06/20 06:42:09;;;;;;;4.62;4.33;;;40.60;53.60;;;;;;908338;153;26303;-78
2023/06/20 06:44:36;;;;;;;4.40;4.10;;;40.70;52.90;;;;;;908958;153;26294;-78
2023/06/20 06:47:02;;;;;;;4.70;4.40;;;40.90;52.40;;;;;;910705;153;26299;-78
2023/06/20 06:49:31;;;;;;;4.67;4.28;;;41.20;51.70;;;;;;908765;153;26405;-78
2023/06/20 06:51:56;;;;;;;4.58;4.17;;;41.40;51.10;;;;;;907215;153;26311;-78
2023/06/20 06:54:22;;;;;;;3.80;3.58;;;41.60;50.60;;;;;;908942;153;26340;-77
2023/06/20 06:56:49;;;;;;;4.20;3.90;;;41.80;50.30;;;;;;908960;156;26315;-77
2023/06/20 06:59:15;;;;;;;4.15;3.75;;;41.90;50.00;;;;;;906611;153;26326;-78
2023/06/20 07:01:42;;;;;;;4.40;4.10;;;42.20;49.60;;;;;;908112;153;26287;-78
2023/06/20 07:04:08;;;;;;;3.70;3.50;;;42.40;49.00;;;;;;907975;153;26379;-78
2023/06/20 07:06:35;;;;;;;4.05;3.85;;;42.70;48.40;;;;;;909925;153;26306;-78
2023/06/20 07:09:02;;;;;;;3.60;3.40;;;42.90;48.00;;;;;;908896;153;26413;-79
2023/06/20 07:11:28;;;;;;;3.90;3.60;;;43.20;47.60;;;;;;908567;156;26421;-78
2023/06/20 07:13:55;;;;;;;3.65;3.40;;;43.50;47.30;;;;;;907376;153;26353;-78
2023/06/20 07:16:21;;;;;;;3.55;3.25;;;43.80;46.80;;;;;;909874;156;26349;-78
2023/06/20 07:18:48;;;;;;;3.77;3.47;;;44.10;46.40;;;;;;906903;153;26307;-78
2023/06/20 07:21:16;;;;;;;3.55;3.35;;;44.50;45.70;;;;;;910653;153;26299;-78
2023/06/20 07:23:41;;;;;;;3.33;3.12;;;44.80;45.10;;;;;;909534;153;26328;-78
2023/06/20 07:26:08;;;;;;;3.42;3.17;;;45.20;44.50;;;;;;908583;153;26424;-78
2023/06/20 07:28:35;;;;;;;3.30;3.00;;;45.60;43.90;;;;;;908788;153;26286;-78
2023/06/20 07:31:01;;;;;;;3.45;3.25;;;45.80;43.00;;;;;;908512;153;26413;-78
2023/06/20 07:33:27;;;;;;;3.40;3.20;;;46.10;43.00;;;;;;909596;153;26355;-78
2023/06/20 07:35:54;;;;;;;4.15;3.72;;;46.30;41.90;;;;;;909173;153;26271;-78
2023/06/20 07:38:21;;;;;;;4.10;3.90;;;46.60;41.30;;;;;;909624;156;26316;-78
2023/06/20 07:40:47;;;;;;;3.83;3.62;;;46.70;40.90;;;;;;909378;153;26278;-78
2023/06/20 07:43:14;;;;;;;3.42;3.22;;;46.80;40.30;;;;;;907424;153;26327;-78
2023/06/20 07:45:40;;;;;;;3.80;3.50;;;46.90;40.10;;;;;;908746;153;26356;-78
2023/06/20 07:48:07;;;;;;;3.27;3.00;;;47.10;39.70;;;;;;907104;153;26260;-79
2023/06/20 07:50:33;;;;;;;3.25;3.05;;;47.20;39.60;;;;;;907255;153;26268;-78
2023/06/20 07:53:00;;;;;;;3.47;3.17;;;47.40;39.10;;;;;;908664;153;26408;-78
2023/06/20 07:55:27;;;;;;;3.90;3.60;;;47.40;38.20;;;;;;909982;155;26498;-78
2023/06/20 07:57:53;;;;;;;4.00;3.70;;;47.50;37.90;;;;;;915150;155;26238;-78
2023/06/20 08:00:20;;;;;;;3.42;3.22;;;47.50;37.60;;;;;;911821;153;26271;-78
2023/06/20 08:02:46;;;;;;;3.25;2.95;;;47.50;37.60;;;;;;913398;153;26348;-78
2023/06/20 08:05:13;;;;;;;3.37;3.17;;;47.50;37.60;;;;;;913826;153;26299;-78
2023/06/20 08:07:40;;;;;;;3.80;3.58;;;47.50;37.30;;;;;;912443;153;26323;-78
2023/06/20 08:10:07;;;;;;;3.83;3.52;;;47.60;37.00;;;;;;914313;153;26301;-78
2023/06/20 08:12:33;;;;;;;3.62;3.42;;;47.60;36.70;;;;;;913079;153;26274;-78
2023/06/20 08:14:59;;;;;;;3.37;3.17;;;47.60;36.30;;;;;;913538;153;26409;-78
2023/06/20 08:17:26;;;;;;;3.70;3.50;;;47.60;36.10;;;;;;911455;155;26410;-78
2023/06/20 08:19:53;;;;;;;3.50;3.30;;;47.50;35.40;;;;;;914609;153;26274;-78
2023/06/20 08:22:19;;;;;;;3.95;3.65;;;47.40;35.50;;;;;;913195;153;26275;-78
2023/06/20 08:24:46;;;;;;;3.40;3.20;;;47.20;35.50;;;;;;913914;153;26252;-78
2023/06/20 08:27:12;;;;;;;3.77;3.08;;;47.10;35.70;;;;;;913498;153;26326;-78
2023/06/20 08:29:39;;;;;;;3.37;3.17;;;47.10;35.80;;;;;;913986;153;26416;-78
2023/06/20 08:32:06;;;;;;;3.98;3.70;;;47.30;35.90;;;;;;912506;153;26313;-78
2023/06/20 08:34:32;;;;;;;3.42;3.22;;;47.60;35.60;;;;;;913232;153;26313;-78
2023/06/20 08:36:59;;;;;;;3.37;3.17;;;47.90;35.60;;;;;;913157;153;26331;-78
2023/06/20 08:39:26;;;;;;;3.90;3.60;;;48.20;35.00;;;;;;912747;153;26401;-78
2023/06/20 08:41:52;;;;;;;3.60;3.37;;;48.50;34.80;;;;;;912314;153;26345;-76
2023/06/20 08:44:18;;;;;;;3.15;2.90;;;48.80;34.30;;;;;;913404;153;26199;-75
2023/06/20 08:46:46;;;;;;;3.17;2.98;;;49.10;33.90;;;;;;913609;153;26314;-75
2023/06/20 08:49:14;;;;;;;3.10;2.90;;;49.40;33.50;;;;;;913565;153;26322;-75
2023/06/20 08:51:39;;;;;;;3.42;3.02;;;49.60;33.20;;;;;;914109;153;26634;-75
2023/06/20 08:54:06;;;;;;;3.10;2.90;;;49.80;33.00;;;;;;913228;153;26301;-78
2023/06/20 08:56:31;;;;;;;3.20;2.98;;;50.10;32.70;;;;;;905620;154;26461;-78
2023/06/20 08:58:58;;;;;;;2.85;2.67;;;50.40;32.20;;;;;;903189;154;26308;-78
2023/06/20 09:01:25;;;;;;;3.33;3.10;;;50.60;31.60;;;;;;904374;154;26287;-78
2023/06/20 09:03:52;;;;;;;2.90;2.75;;;50.80;31.30;;;;;;905028;154;26696;-78
2023/06/20 09:06:18;;;;;;;2.77;2.58;;;50.90;31.30;;;;;;904444;154;26404;-78
2023/06/20 09:08:45;;;;;;;2.72;2.60;;;51.10;30.90;;;;;;898885;154;26323;-78
2023/06/20 09:11:11;;;;;;;3.20;2.90;;;51.20;30.60;;;;;;905263;154;26307;-78
2023/06/20 09:13:38;;;;;;;3.17;2.87;;;51.40;30.20;;;;;;903171;154;26432;-78
2023/06/20 09:16:10;;;;;;;3.00;2.80;;;51.40;30.00;;;;;;904095;154;26310;-78
2023/06/20 09:18:37;;;;;;;3.20;3.00;;;51.50;29.90;;;;;;904202;155;26267;-78
2023/06/20 09:21:03;;;;;;;3.12;2.92;;;51.40;29.70;;;;;;904078;155;26320;-78
2023/06/20 09:23:32;;;;;;;3.33;3.12;;;51.20;29.50;;;;;;903165;155;26339;-78
2023/06/20 09:26:17;;;;;;;3.87;3.50;;;51.00;29.40;;;;;;904174;155;26209;-78
2023/06/20 09:28:43;;;;;;;3.77;3.47;;;50.60;29.30;;;;;;904923;157;26275;-78
2023/06/20 09:31:10;;;;;;;3.65;3.35;;;50.10;29.40;;;;;;904987;154;26397;-78
2023/06/20 09:33:39;;;;;;;3.80;3.58;;;49.60;29.40;;;;;;904051;155;26398;-78
2023/06/20 09:36:15;;;;;;;3.65;3.45;;;49.10;29.50;;;;;;905277;154;26382;-78
2023/06/20 09:38:44;;;;;;;3.45;3.25;;;48.70;29.90;;;;;;905157;154;26386;-78
2023/06/20 09:41:17;;;;;;;4.08;3.70;;;48.40;30.10;;;;;;905225;154;26438;-78
2023/06/20 09:43:43;;;;;;;3.65;3.45;;;48.00;30.10;;;;;;904617;154;26374;-78
2023/06/20 09:46:10;;;;;;;4.08;3.77;;;47.80;30.30;;;;;;905506;154;26272;-78
2023/06/20 09:48:37;;;;;;;3.58;3.27;;;47.60;30.30;;;;;;903441;154;26225;-78
2023/06/20 09:51:03;;;;;;;3.33;3.12;;;47.50;30.20;;;;;;903705;154;26692;-78
2023/06/20 09:53:30;;;;;;;3.67;3.33;;;47.20;30.60;;;;;;904342;155;26295;-78
2023/06/20 09:55:56;;;;;;;8.98;3.52;;;47.00;30.30;;;;;;903188;153;26336;-78
2023/06/20 09:58:23;;;;;;;3.47;3.27;;;46.70;30.40;;;;;;908296;153;26297;-78
2023/06/20 10:00:50;;;;;;;3.65;3.45;;;46.60;30.60;;;;;;907779;156;26319;-78
2023/06/20 10:03:16;;;;;;;4.33;3.98;;;46.30;30.90;;;;;;909564;153;26323;-78
2023/06/20 10:05:43;;;;;;;4.15;3.85;;;46.00;30.60;;;;;;908859;153;26261;-78
2023/06/20 10:08:09;;;;;;;4.53;4.22;;;45.70;30.00;;;;;;907743;153;26298;-78
2023/06/20 10:10:36;;;;;;;4.75;4.35;;;45.30;30.80;;;;;;907341;153;26390;-78
2023/06/20 10:13:03;;;;;;;4.55;4.15;;;44.80;31.20;;;;;;908152;154;26302;-78
2023/06/20 10:15:29;;;;;;;4.75;4.25;;;44.30;31.70;;;;;;908870;156;26392;-78
2023/06/20 10:17:56;;;;;;;4.47;4.08;;;44.00;32.00;;;;;;908043;153;26271;-78
2023/06/20 10:20:33;;;;;;;4.40;4.00;;;43.70;32.30;;;;;;908171;153;26316;-78
2023/06/20 10:22:58;;;;;;;4.35;4.05;;;43.50;32.50;;;;;;908240;153;26439;-78
2023/06/20 10:25:25;;;;;;;4.28;3.98;;;43.30;32.40;;;;;;909692;153;26310;-78
2023/06/20 10:28:03;;;;;;;4.37;3.98;;;43.20;32.40;;;;;;908513;153;26409;-78
2023/06/20 10:30:53;;;;;;;4.15;3.85;;;43.10;32.20;;;;;;907373;153;26668;-78
2023/06/20 10:33:15;;;;;;;4.33;4.03;;;43.00;32.40;;;;;;908568;153;26533;-78
2023/06/20 10:35:50;;;;;;;4.35;4.05;;;42.80;32.60;;;;;;906787;153;26807;-78
2023/06/20 10:38:17;;;;;;;4.15;3.85;;;42.70;32.60;;;;;;908513;156;26405;-78
2023/06/20 10:40:44;;;;;;;4.28;3.98;;;42.60;32.70;;;;;;908515;156;26265;-78
2023/06/20 10:43:16;;;;;;;3.90;3.65;;;42.40;32.60;;;;;;908263;153;26302;-78
2023/06/20 10:45:52;;;;;;;4.78;4.47;;;42.30;32.80;;;;;;906974;153;26366;-78
2023/06/20 10:48:18;;;;;;;4.08;3.83;;;42.10;32.80;;;;;;909248;153;26396;-78
2023/06/20 10:50:44;;;;;;;4.53;4.15;;;41.90;32.90;;;;;;908259;153;27451;-78
2023/06/20 10:53:11;;;;;;;4.45;4.15;;;41.70;33.10;;;;;;909002;153;26212;-78
2023/06/20 10:55:38;;;;;;;4.28;3.70;;;41.60;33.20;;;;;;907805;155;27492;-78
2023/06/20 10:58:04;;;;;;;4.15;3.85;;;41.40;33.40;;;;;;909248;153;26335;-78
2023/06/20 11:00:31;;;;;;;4.22;4.00;;;41.30;34.10;;;;;;908548;156;26371;-78
2023/06/20 11:02:57;;;;;;;4.33;4.05;;;41.10;33.70;;;;;;909180;153;26252;-78
2023/06/20 11:05:24;;;;;;;3.52;3.22;;;41.00;33.80;;;;;;909916;154;26413;-78
2023/06/20 11:07:59;;;;;;;3.77;3.55;;;40.90;33.80;;;;;;907822;153;26272;-78
2023/06/20 11:10:29;;;;;;;4.28;3.27;;;40.80;33.80;;;;;;909849;153;27790;-78
2023/06/20 11:12:55;;;;;;;4.17;3.70;;;40.70;33.80;;;;;;906965;153;26266;-78
2023/06/20 11:15:27;;;;;;;3.70;3.50;;;40.60;33.60;;;;;;909263;153;26344;-78
2023/06/20 11:17:54;;;;;;;3.45;3.15;;;40.40;33.70;;;;;;908887;153;26303;-78
2023/06/20 11:20:20;;;;;;;3.40;3.20;;;40.30;33.60;;;;;;911048;153;26392;-78
2023/06/20 11:22:47;;;;;;;4.00;3.67;;;40.10;33.80;;;;;;908699;153;26275;-78
2023/06/20 11:25:32;;;;;;;3.98;3.67;;;39.90;34.10;;;;;;909010;153;26429;-78
2023/06/20 11:28:11;;;;;;;3.83;3.60;;;39.80;34.30;;;;;;908146;153;26409;-77
2023/06/20 11:30:37;;;;;;;4.65;3.58;;;39.60;34.30;;;;;;908644;153;26398;-77
2023/06/20 11:33:06;;;;;;;3.25;3.05;;;39.50;34.60;;;;;;907915;153;26318;-78
2023/06/20 11:35:42;;;;;;;3.60;3.40;;;39.30;34.50;;;;;;908018;153;26260;-78
2023/06/20 11:38:19;;;;;;;3.30;3.10;;;39.20;34.60;;;;;;909104;153;27463;-78
2023/06/20 11:40:45;;;;;;;3.37;3.17;;;39.10;34.60;;;;;;878658;162;26758;-78
2023/06/20 11:43:26;;;;;;;3.90;3.62;;;39.00;34.90;;;;;;909001;153;26322;-77
2023/06/20 11:45:53;;;;;;;3.47;3.20;;;38.90;35.40;;;;;;911363;153;26369;-77
2023/06/20 11:48:19;;;;;;;3.90;3.60;;;38.90;35.40;;;;;;909588;153;26383;-77
2023/06/20 11:50:47;;;;;;;3.92;3.62;;;38.80;35.00;;;;;;913173;153;26240;-78
2023/06/20 11:53:21;;;;;;;3.33;3.12;;;38.80;35.10;;;;;;909656;153;26433;-78
2023/06/20 11:55:51;;;;;;;3.40;3.20;;;38.70;35.00;;;;;;912552;156;26376;-75
2023/06/20 11:58:17;;;;;;;4.15;3.20;;;38.70;34.90;;;;;;905632;154;26391;-75
2023/06/20 12:00:47;;;;;;;3.55;3.10;;;38.60;35.10;;;;;;904735;154;26362;-75
2023/06/20 12:03:17;;;;;;;3.12;2.92;;;38.60;35.10;;;;;;887150;157;26367;-75
2023/06/20 12:05:43;;;;;;;3.20;3.00;;;38.50;35.00;;;;;;907201;153;26270;-75
2023/06/20 12:08:09;;;;;;;3.60;3.30;;;38.50;35.10;;;;;;906668;153;26361;-75
2023/06/20 12:10:38;;;;;;;3.17;2.90;;;38.60;35.10;;;;;;909112;153;26361;-75
2023/06/20 12:13:05;;;;;;;3.25;3.05;;;38.50;35.00;;;;;;909386;153;27520;-75
2023/06/20 12:15:32;;;;;;;3.17;2.98;;;38.40;34.80;;;;;;908159;153;26318;-75
2023/06/20 12:17:58;;;;;;;3.37;2.98;;;38.40;34.80;;;;;;907074;153;26291;-75
2023/06/20 12:20:25;;;;;;;3.42;3.10;;;38.40;35.00;;;;;;908683;153;26308;-75
2023/06/20 12:22:51;;;;;;;15.95;3.67;;;38.30;34.70;;;;;;907868;153;27541;-75
2023/06/20 12:25:18;;;;;;;3.15;2.85;;;38.20;34.70;;;;;;907180;153;27377;-75
2023/06/20 12:27:44;;;;;;;3.37;3.08;;;38.20;34.90;;;;;;907759;153;26321;-75
2023/06/20 12:30:11;;;;;;;3.22;3.02;;;38.10;34.80;;;;;;909004;153;26385;-75
2023/06/20 12:32:38;;;;;;;3.35;3.10;;;37.90;34.80;;;;;;906750;153;26311;-76
2023/06/20 12:35:04;;;;;;;3.50;3.02;;;37.80;35.00;;;;;;906489;153;27541;-75
2023/06/20 12:37:31;;;;;;;2.72;2.62;;;37.70;35.00;;;;;;907088;153;27439;-75
2023/06/20 12:39:57;;;;;;;3.35;3.05;;;37.60;35.00;;;;;;906467;153;26272;-75
2023/06/20 12:42:24;;;;;;;3.00;2.80;;;37.50;35.00;;;;;;907190;153;26374;-75
2023/06/20 12:44:51;;;;;;;3.58;3.30;;;37.40;35.10;;;;;;908047;153;27426;-75
2023/06/20 12:47:17;;;;;;;3.33;3.12;;;37.30;35.20;;;;;;909401;153;26260;-75
2023/06/20 12:49:45;;;;;;;3.25;3.05;;;37.10;35.40;;;;;;874484;159;27448;-75